Sainte-Foy, Canada
Current Conditions -  °F | °C
As of 3:00 AM on Thursday 23 Oct 2014 (Local Time) from CYQB Reporting Station
Broken Clouds Broken Clouds  
Wind Chill: 38°   Ceiling: 9000
Heat Index: 45°   Visibility: 15mi
Dew Point: 34°   Wind: 15mph
Humidity: 66%   Direction: 50°NE
Pressure: 30.22"   Gusts: 24mph
Location:  46.78°N, 71.3°W
Report Text: CYQB 230700Z 05013G21KT 15SM BKN090 07/01 A3022 RMK AC7 SLP237
Loading
Personal Weather Stations






























Interactive Weather Map
Tropical Storm Tracking
New forecast layout! Learn more

10-Day Weather Forecast

Advertisements
Track Severe Weather on mobile